sensor_id;sensor_type;location;lat;lon;timestamp;temperature;humidity
6407;DHT22;3236;51.022;6.818;2023-07-08T00:00:57;20.60;99.90
6407;DHT22;3236;51.022;6.818;2023-07-08T00:03:24;20.70;99.90
6407;DHT22;3236;51.022;6.818;2023-07-08T00:05:55;20.40;99.90
6407;DHT22;3236;51.022;6.818;2023-07-08T00:08:22;20.70;99.90
6407;DHT22;3236;51.022;6.818;2023-07-08T00:13:17;20.70;99.90
6407;DHT22;3236;51.022;6.818;2023-07-08T00:15:44;20.60;99.90
6407;DHT22;3236;51.022;6.818;2023-07-08T00:18:13;20.50;99.90
6407;DHT22;3236;51.022;6.818;2023-07-08T00:20:43;20.80;99.90
6407;DHT22;3236;51.022;6.818;2023-07-08T00:23:12;20.30;99.90
6407;DHT22;3236;51.022;6.818;2023-07-08T00:25:40;20.10;99.90
6407;DHT22;3236;51.022;6.818;2023-07-08T00:28:09;20.00;99.90
6407;DHT22;3236;51.022;6.818;2023-07-08T00:30:36;20.30;99.90
6407;DHT22;3236;51.022;6.818;2023-07-08T00:33:05;20.10;99.90
6407;DHT22;3236;51.022;6.818;2023-07-08T00:35:34;20.10;99.90
6407;DHT22;3236;51.022;6.818;2023-07-08T00:38:01;19.80;99.90
6407;DHT22;3236;51.022;6.818;2023-07-08T00:40:31;20.20;99.90
6407;DHT22;3236;51.022;6.818;2023-07-08T00:43:01;19.90;99.90
6407;DHT22;3236;51.022;6.818;2023-07-08T00:45:38;20.90;99.90
6407;DHT22;3236;51.022;6.818;2023-07-08T00:48:25;19.80;99.90
6407;DHT22;3236;51.022;6.818;2023-07-08T00:50:54;20.10;99.90
6407;DHT22;3236;51.022;6.818;2023-07-08T00:53:25;19.70;99.90
6407;DHT22;3236;51.022;6.818;2023-07-08T00:55:57;19.70;99.90
6407;DHT22;3236;51.022;6.818;2023-07-08T00:58:29;19.60;99.90
6407;DHT22;3236;51.022;6.818;2023-07-08T01:00:59;19.60;99.90
6407;DHT22;3236;51.022;6.818;2023-07-08T01:03:29;19.70;99.90
6407;DHT22;3236;51.022;6.818;2023-07-08T01:05:57;19.60;99.90
6407;DHT22;3236;51.022;6.818;2023-07-08T01:08:30;19.90;99.90
6407;DHT22;3236;51.022;6.818;2023-07-08T01:11:02;19.70;99.90
6407;DHT22;3236;51.022;6.818;2023-07-08T01:13:40;19.70;99.90
6407;DHT22;3236;51.022;6.818;2023-07-08T01:16:10;19.80;99.90
6407;DHT22;3236;51.022;6.818;2023-07-08T01:18:37;20.20;99.90
6407;DHT22;3236;51.022;6.818;2023-07-08T01:21:26;19.80;99.90
6407;DHT22;3236;51.022;6.818;2023-07-08T01:23:55;19.70;99.90
6407;DHT22;3236;51.022;6.818;2023-07-08T01:26:23;19.80;99.90
6407;DHT22;3236;51.022;6.818;2023-07-08T01:28:51;20.10;99.90
6407;DHT22;3236;51.022;6.818;2023-07-08T01:31:18;20.20;99.90
6407;DHT22;3236;51.022;6.818;2023-07-08T01:33:46;19.90;99.90
6407;DHT22;3236;51.022;6.818;2023-07-08T01:36:13;20.00;99.90
6407;DHT22;3236;51.022;6.818;2023-07-08T01:38:40;20.00;99.90
6407;DHT22;3236;51.022;6.818;2023-07-08T01:41:11;20.00;99.90
6407;DHT22;3236;51.022;6.818;2023-07-08T01:43:40;20.00;99.90
6407;DHT22;3236;51.022;6.818;2023-07-08T01:46:15;20.20;99.90
6407;DHT22;3236;51.022;6.818;2023-07-08T01:48:48;20.00;99.90
6407;DHT22;3236;51.022;6.818;2023-07-08T01:51:16;20.20;99.90
6407;DHT22;3236;51.022;6.818;2023-07-08T01:53:43;19.90;99.90
6407;DHT22;3236;51.022;6.818;2023-07-08T01:56:13;19.70;99.90
6407;DHT22;3236;51.022;6.818;2023-07-08T01:58:40;19.90;99.90
6407;DHT22;3236;51.022;6.818;2023-07-08T02:01:08;19.80;99.90
6407;DHT22;3236;51.022;6.818;2023-07-08T02:03:35;19.80;99.90
6407;DHT22;3236;51.022;6.818;2023-07-08T02:06:02;19.70;99.90
6407;DHT22;3236;51.022;6.818;2023-07-08T02:08:29;19.40;99.90
6407;DHT22;3236;51.022;6.818;2023-07-08T02:10:58;19.60;99.90
6407;DHT22;3236;51.022;6.818;2023-07-08T02:13:26;19.60;99.90
6407;DHT22;3236;51.022;6.818;2023-07-08T02:15:53;19.20;99.90
6407;DHT22;3236;51.022;6.818;2023-07-08T02:18:23;19.40;99.90
6407;DHT22;3236;51.022;6.818;2023-07-08T02:20:50;19.50;99.90
6407;DHT22;3236;51.022;6.818;2023-07-08T02:23:17;19.30;99.90
6407;DHT22;3236;51.022;6.818;2023-07-08T02:25:55;19.20;99.90
6407;DHT22;3236;51.022;6.818;2023-07-08T02:28:22;19.00;99.90
6407;DHT22;3236;51.022;6.818;2023-07-08T02:30:51;19.10;99.90
6407;DHT22;3236;51.022;6.818;2023-07-08T02:33:19;19.00;99.90
6407;DHT22;3236;51.022;6.818;2023-07-08T02:35:53;18.90;99.90
6407;DHT22;3236;51.022;6.818;2023-07-08T02:38:23;19.00;99.90
6407;DHT22;3236;51.022;6.818;2023-07-08T02:40:50;18.90;99.90
6407;DHT22;3236;51.022;6.818;2023-07-08T02:43:17;18.60;99.90
6407;DHT22;3236;51.022;6.818;2023-07-08T02:45:44;18.60;99.90
6407;DHT22;3236;51.022;6.818;2023-07-08T02:48:13;18.60;99.90
6407;DHT22;3236;51.022;6.818;2023-07-08T02:50:43;18.60;99.90
6407;DHT22;3236;51.022;6.818;2023-07-08T02:53:10;18.80;99.90
6407;DHT22;3236;51.022;6.818;2023-07-08T02:55:37;18.60;99.90
6407;DHT22;3236;51.022;6.818;2023-07-08T02:58:04;18.50;99.90
6407;DHT22;3236;51.022;6.818;2023-07-08T03:00:31;18.40;99.90
6407;DHT22;3236;51.022;6.818;2023-07-08T03:02:59;18.40;99.90
6407;DHT22;3236;51.022;6.818;2023-07-08T03:05:28;18.50;99.90
6407;DHT22;3236;51.022;6.818;2023-07-08T03:07:56;18.50;99.90
6407;DHT22;3236;51.022;6.818;2023-07-08T03:10:24;18.50;99.90
6407;DHT22;3236;51.022;6.818;2023-07-08T03:12:51;18.40;99.90
6407;DHT22;3236;51.022;6.818;2023-07-08T03:15:18;18.20;99.90
6407;DHT22;3236;51.022;6.818;2023-07-08T03:17:45;18.40;99.90
6407;DHT22;3236;51.022;6.818;2023-07-08T03:20:12;18.40;99.90
6407;DHT22;3236;51.022;6.818;2023-07-08T03:22:41;18.40;99.90
6407;DHT22;3236;51.022;6.818;2023-07-08T03:25:08;18.50;99.90
6407;DHT22;3236;51.022;6.818;2023-07-08T03:27:35;18.40;99.90
6407;DHT22;3236;51.022;6.818;2023-07-08T03:32:30;18.10;99.90
6407;DHT22;3236;51.022;6.818;2023-07-08T03:34:57;18.40;99.90
6407;DHT22;3236;51.022;6.818;2023-07-08T03:37:29;18.60;99.90
6407;DHT22;3236;51.022;6.818;2023-07-08T03:40:01;18.20;99.90
6407;DHT22;3236;51.022;6.818;2023-07-08T03:42:29;18.30;99.90
6407;DHT22;3236;51.022;6.818;2023-07-08T03:45:00;18.30;99.90
6407;DHT22;3236;51.022;6.818;2023-07-08T03:47:34;18.40;99.90
6407;DHT22;3236;51.022;6.818;2023-07-08T03:50:01;18.70;99.90
6407;DHT22;3236;51.022;6.818;2023-07-08T03:52:28;18.80;99.90
6407;DHT22;3236;51.022;6.818;2023-07-08T03:54:55;19.20;99.90
6407;DHT22;3236;51.022;6.818;2023-07-08T03:57:24;18.90;99.90
6407;DHT22;3236;51.022;6.818;2023-07-08T03:59:50;19.00;99.90
6407;DHT22;3236;51.022;6.818;2023-07-08T04:02:18;18.50;99.90
6407;DHT22;3236;51.022;6.818;2023-07-08T04:04:45;18.40;99.90
6407;DHT22;3236;51.022;6.818;2023-07-08T04:07:12;18.60;99.90
6407;DHT22;3236;51.022;6.818;2023-07-08T04:09:39;18.40;99.90
6407;DHT22;3236;51.022;6.818;2023-07-08T04:12:10;19.00;99.90
6407;DHT22;3236;51.022;6.818;2023-07-08T04:14:38;18.50;99.90
6407;DHT22;3236;51.022;6.818;2023-07-08T04:17:08;18.30;99.90
6407;DHT22;3236;51.022;6.818;2023-07-08T04:19:35;18.50;99.90
6407;DHT22;3236;51.022;6.818;2023-07-08T04:22:05;18.60;99.90
6407;DHT22;3236;51.022;6.818;2023-07-08T04:24:32;18.00;99.90
6407;DHT22;3236;51.022;6.818;2023-07-08T04:26:59;18.50;99.90
6407;DHT22;3236;51.022;6.818;2023-07-08T04:29:28;18.20;99.90
6407;DHT22;3236;51.022;6.818;2023-07-08T04:31:56;19.10;99.90
6407;DHT22;3236;51.022;6.818;2023-07-08T04:34:23;18.20;99.90
6407;DHT22;3236;51.022;6.818;2023-07-08T04:36:51;18.00;99.90
6407;DHT22;3236;51.022;6.818;2023-07-08T04:39:18;17.90;99.90
6407;DHT22;3236;51.022;6.818;2023-07-08T04:41:45;17.80;99.90
6407;DHT22;3236;51.022;6.818;2023-07-08T04:44:13;18.00;99.90
6407;DHT22;3236;51.022;6.818;2023-07-08T04:46:43;17.90;99.90
6407;DHT22;3236;51.022;6.818;2023-07-08T04:49:12;18.30;99.90
6407;DHT22;3236;51.022;6.818;2023-07-08T04:51:40;18.20;99.90
6407;DHT22;3236;51.022;6.818;2023-07-08T04:54:09;18.20;99.90
6407;DHT22;3236;51.022;6.818;2023-07-08T04:56:37;18.40;99.90
6407;DHT22;3236;51.022;6.818;2023-07-08T04:59:05;18.20;99.90
6407;DHT22;3236;51.022;6.818;2023-07-08T05:01:32;18.40;99.90
6407;DHT22;3236;51.022;6.818;2023-07-08T05:03:59;18.70;99.90
6407;DHT22;3236;51.022;6.818;2023-07-08T05:06:28;18.60;99.90
6407;DHT22;3236;51.022;6.818;2023-07-08T05:08:55;18.60;99.90
6407;DHT22;3236;51.022;6.818;2023-07-08T05:11:22;19.40;99.90
6407;DHT22;3236;51.022;6.818;2023-07-08T05:13:52;18.80;99.90
6407;DHT22;3236;51.022;6.818;2023-07-08T05:16:19;18.90;99.90
6407;DHT22;3236;51.022;6.818;2023-07-08T05:18:46;19.60;99.90
6407;DHT22;3236;51.022;6.818;2023-07-08T05:21:14;19.40;99.90
6407;DHT22;3236;51.022;6.818;2023-07-08T05:23:42;19.30;99.90
6407;DHT22;3236;51.022;6.818;2023-07-08T05:26:10;19.30;99.90
6407;DHT22;3236;51.022;6.818;2023-07-08T05:28:37;19.50;99.90
6407;DHT22;3236;51.022;6.818;2023-07-08T05:31:05;19.60;99.90
6407;DHT22;3236;51.022;6.818;2023-07-08T05:33:33;19.80;99.90
6407;DHT22;3236;51.022;6.818;2023-07-08T05:36:01;20.30;99.90
6407;DHT22;3236;51.022;6.818;2023-07-08T05:38:30;20.10;99.90
6407;DHT22;3236;51.022;6.818;2023-07-08T05:40:59;20.40;99.90
6407;DHT22;3236;51.022;6.818;2023-07-08T05:43:26;20.40;99.90
6407;DHT22;3236;51.022;6.818;2023-07-08T05:46:00;20.90;99.90
6407;DHT22;3236;51.022;6.818;2023-07-08T05:48:28;20.70;99.90
6407;DHT22;3236;51.022;6.818;2023-07-08T05:50:58;21.30;99.90
6407;DHT22;3236;51.022;6.818;2023-07-08T05:53:25;21.10;99.90
6407;DHT22;3236;51.022;6.818;2023-07-08T05:55:52;21.60;99.90
6407;DHT22;3236;51.022;6.818;2023-07-08T05:58:20;21.70;99.90
6407;DHT22;3236;51.022;6.818;2023-07-08T06:00:54;21.80;99.90
6407;DHT22;3236;51.022;6.818;2023-07-08T06:03:21;22.60;99.90
6407;DHT22;3236;51.022;6.818;2023-07-08T06:05:48;23.20;99.90
6407;DHT22;3236;51.022;6.818;2023-07-08T06:08:15;23.30;97.60
6407;DHT22;3236;51.022;6.818;2023-07-08T06:10:43;23.60;96.50
6407;DHT22;3236;51.022;6.818;2023-07-08T06:13:11;23.10;96.20
6407;DHT22;3236;51.022;6.818;2023-07-08T06:15:39;23.00;95.30
6407;DHT22;3236;51.022;6.818;2023-07-08T06:18:06;23.70;95.00
6407;DHT22;3236;51.022;6.818;2023-07-08T06:20:33;23.30;92.50
6407;DHT22;3236;51.022;6.818;2023-07-08T06:23:00;24.10;91.20
6407;DHT22;3236;51.022;6.818;2023-07-08T06:25:28;23.80;86.80
6407;DHT22;3236;51.022;6.818;2023-07-08T06:28:01;24.10;83.10
6407;DHT22;3236;51.022;6.818;2023-07-08T06:30:28;24.20;80.90
6407;DHT22;3236;51.022;6.818;2023-07-08T06:32:57;24.70;76.20
6407;DHT22;3236;51.022;6.818;2023-07-08T06:35:24;24.60;76.10
6407;DHT22;3236;51.022;6.818;2023-07-08T06:37:51;24.60;73.40
6407;DHT22;3236;51.022;6.818;2023-07-08T06:40:18;25.00;77.20
6407;DHT22;3236;51.022;6.818;2023-07-08T06:42:45;24.40;73.40
6407;DHT22;3236;51.022;6.818;2023-07-08T06:45:12;24.70;76.00
6407;DHT22;3236;51.022;6.818;2023-07-08T06:47:39;24.60;75.50
6407;DHT22;3236;51.022;6.818;2023-07-08T06:50:09;25.20;72.70
6407;DHT22;3236;51.022;6.818;2023-07-08T06:52:36;24.80;71.90
6407;DHT22;3236;51.022;6.818;2023-07-08T06:55:07;25.00;70.40
6407;DHT22;3236;51.022;6.818;2023-07-08T06:57:34;25.00;73.40
6407;DHT22;3236;51.022;6.818;2023-07-08T07:00:01;25.30;73.70
6407;DHT22;3236;51.022;6.818;2023-07-08T07:02:32;25.10;72.40
6407;DHT22;3236;51.022;6.818;2023-07-08T07:04:59;25.10;73.10
6407;DHT22;3236;51.022;6.818;2023-07-08T07:07:27;25.00;75.30
6407;DHT22;3236;51.022;6.818;2023-07-08T07:10:01;25.20;72.30
6407;DHT22;3236;51.022;6.818;2023-07-08T07:12:28;25.40;69.00
6407;DHT22;3236;51.022;6.818;2023-07-08T07:14:55;25.70;70.10
6407;DHT22;3236;51.022;6.818;2023-07-08T07:17:24;25.70;66.60
6407;DHT22;3236;51.022;6.818;2023-07-08T07:19:52;25.30;65.00
6407;DHT22;3236;51.022;6.818;2023-07-08T07:22:19;25.30;63.90
6407;DHT22;3236;51.022;6.818;2023-07-08T07:24:48;25.80;62.10
6407;DHT22;3236;51.022;6.818;2023-07-08T07:27:15;26.20;62.40
6407;DHT22;3236;51.022;6.818;2023-07-08T07:29:43;25.90;62.10
6407;DHT22;3236;51.022;6.818;2023-07-08T07:32:11;25.90;60.50
6407;DHT22;3236;51.022;6.818;2023-07-08T07:34:39;26.20;64.50
6407;DHT22;3236;51.022;6.818;2023-07-08T07:37:10;26.30;60.20
6407;DHT22;3236;51.022;6.818;2023-07-08T07:39:38;26.30;59.00
6407;DHT22;3236;51.022;6.818;2023-07-08T07:42:07;25.90;57.60
6407;DHT22;3236;51.022;6.818;2023-07-08T07:44:35;26.20;57.80
6407;DHT22;3236;51.022;6.818;2023-07-08T07:47:02;26.00;58.10
6407;DHT22;3236;51.022;6.818;2023-07-08T07:49:29;26.80;58.50
6407;DHT22;3236;51.022;6.818;2023-07-08T07:51:57;26.30;59.70
6407;DHT22;3236;51.022;6.818;2023-07-08T07:56:51;26.50;56.60
6407;DHT22;3236;51.022;6.818;2023-07-08T07:59:20;27.10;53.90
6407;DHT22;3236;51.022;6.818;2023-07-08T08:01:47;27.20;52.90
6407;DHT22;3236;51.022;6.818;2023-07-08T08:04:14;26.70;51.00
6407;DHT22;3236;51.022;6.818;2023-07-08T08:06:41;26.40;50.70
6407;DHT22;3236;51.022;6.818;2023-07-08T08:09:08;26.40;52.80
6407;DHT22;3236;51.022;6.818;2023-07-08T08:11:35;26.90;52.80
6407;DHT22;3236;51.022;6.818;2023-07-08T08:14:03;27.10;49.90
6407;DHT22;3236;51.022;6.818;2023-07-08T08:16:34;27.60;50.00
6407;DHT22;3236;51.022;6.818;2023-07-08T08:19:04;26.60;49.30
6407;DHT22;3236;51.022;6.818;2023-07-08T08:21:31;27.30;47.90
6407;DHT22;3236;51.022;6.818;2023-07-08T08:24:05;27.30;47.90
6407;DHT22;3236;51.022;6.818;2023-07-08T08:26:32;27.40;49.50
6407;DHT22;3236;51.022;6.818;2023-07-08T08:29:05;27.50;48.10
6407;DHT22;3236;51.022;6.818;2023-07-08T08:31:33;27.70;48.20
6407;DHT22;3236;51.022;6.818;2023-07-08T08:34:00;27.80;47.30
6407;DHT22;3236;51.022;6.818;2023-07-08T08:36:27;29.10;47.20
6407;DHT22;3236;51.022;6.818;2023-07-08T08:38:55;28.50;45.70
6407;DHT22;3236;51.022;6.818;2023-07-08T08:41:29;28.10;47.10
6407;DHT22;3236;51.022;6.818;2023-07-08T08:43:58;28.10;48.10
6407;DHT22;3236;51.022;6.818;2023-07-08T08:46:40;26.60;44.40
6407;DHT22;3236;51.022;6.818;2023-07-08T08:49:17;28.90;44.60
6407;DHT22;3236;51.022;6.818;2023-07-08T08:51:47;29.30;43.70
6407;DHT22;3236;51.022;6.818;2023-07-08T08:54:15;29.00;43.70
6407;DHT22;3236;51.022;6.818;2023-07-08T08:56:56;28.10;40.80
6407;DHT22;3236;51.022;6.818;2023-07-08T08:59:31;30.80;42.90
6407;DHT22;3236;51.022;6.818;2023-07-08T09:02:01;29.10;41.70
6407;DHT22;3236;51.022;6.818;2023-07-08T09:04:34;29.60;41.70
6407;DHT22;3236;51.022;6.818;2023-07-08T09:07:06;29.80;41.10
6407;DHT22;3236;51.022;6.818;2023-07-08T09:09:42;29.70;38.90
6407;DHT22;3236;51.022;6.818;2023-07-08T09:12:17;31.10;37.90
6407;DHT22;3236;51.022;6.818;2023-07-08T09:14:46;29.70;35.40
6407;DHT22;3236;51.022;6.818;2023-07-08T09:17:21;30.20;36.40
6407;DHT22;3236;51.022;6.818;2023-07-08T09:19:55;30.00;34.00
6407;DHT22;3236;51.022;6.818;2023-07-08T09:22:31;30.50;35.70
6407;DHT22;3236;51.022;6.818;2023-07-08T09:25:05;32.10;30.70
6407;DHT22;3236;51.022;6.818;2023-07-08T09:27:38;31.40;30.80
6407;DHT22;3236;51.022;6.818;2023-07-08T09:30:15;32.30;30.80
6407;DHT22;3236;51.022;6.818;2023-07-08T09:32:44;30.70;28.30
6407;DHT22;3236;51.022;6.818;2023-07-08T09:35:18;31.10;29.50
6407;DHT22;3236;51.022;6.818;2023-07-08T09:37:47;31.10;29.60
6407;DHT22;3236;51.022;6.818;2023-07-08T09:42:50;31.60;26.50
6407;DHT22;3236;51.022;6.818;2023-07-08T09:45:21;31.60;26.70
6407;DHT22;3236;51.022;6.818;2023-07-08T09:47:52;31.80;27.10
6407;DHT22;3236;51.022;6.818;2023-07-08T09:50:22;32.00;24.40
6407;DHT22;3236;51.022;6.818;2023-07-08T09:52:55;32.30;25.00
6407;DHT22;3236;51.022;6.818;2023-07-08T09:55:23;32.30;22.10
6407;DHT22;3236;51.022;6.818;2023-07-08T09:57:52;32.40;23.40
6407;DHT22;3236;51.022;6.818;2023-07-08T10:00:29;32.30;22.90
6407;DHT22;3236;51.022;6.818;2023-07-08T10:03:04;32.60;22.10
6407;DHT22;3236;51.022;6.818;2023-07-08T10:05:35;32.80;23.50
6407;DHT22;3236;51.022;6.818;2023-07-08T10:08:13;33.10;20.10
6407;DHT22;3236;51.022;6.818;2023-07-08T10:10:41;32.80;19.40
6407;DHT22;3236;51.022;6.818;2023-07-08T10:13:18;33.10;19.10
6407;DHT22;3236;51.022;6.818;2023-07-08T10:15:49;33.50;21.60
6407;DHT22;3236;51.022;6.818;2023-07-08T10:18:28;33.70;18.60
6407;DHT22;3236;51.022;6.818;2023-07-08T10:21:02;33.80;17.20
6407;DHT22;3236;51.022;6.818;2023-07-08T10:23:40;33.90;16.50
6407;DHT22;3236;51.022;6.818;2023-07-08T10:26:14;34.30;17.00
6407;DHT22;3236;51.022;6.818;2023-07-08T10:28:47;34.60;16.60
6407;DHT22;3236;51.022;6.818;2023-07-08T10:31:27;34.80;15.00
6407;DHT22;3236;51.022;6.818;2023-07-08T10:34:10;34.30;14.40
6407;DHT22;3236;51.022;6.818;2023-07-08T10:36:47;34.40;12.50
6407;DHT22;3236;51.022;6.818;2023-07-08T10:39:38;34.70;14.30
6407;DHT22;3236;51.022;6.818;2023-07-08T10:42:17;34.70;15.00
6407;DHT22;3236;51.022;6.818;2023-07-08T10:44:53;34.80;15.00
6407;DHT22;3236;51.022;6.818;2023-07-08T10:47:37;35.00;12.80
6407;DHT22;3236;51.022;6.818;2023-07-08T10:50:24;35.50;12.30
6407;DHT22;3236;51.022;6.818;2023-07-08T10:52:59;35.50;11.50
6407;DHT22;3236;51.022;6.818;2023-07-08T10:55:39;35.20;10.50
6407;DHT22;3236;51.022;6.818;2023-07-08T10:58:30;35.50;10.90
6407;DHT22;3236;51.022;6.818;2023-07-08T11:01:10;35.60;10.50
6407;DHT22;3236;51.022;6.818;2023-07-08T11:03:55;35.70;9.80
6407;DHT22;3236;51.022;6.818;2023-07-08T11:06:45;35.70;9.70
6407;DHT22;3236;51.022;6.818;2023-07-08T11:09:23;36.00;8.80
6407;DHT22;3236;51.022;6.818;2023-07-08T11:11:56;36.50;9.10
6407;DHT22;3236;51.022;6.818;2023-07-08T11:14:27;35.60;7.60
6407;DHT22;3236;51.022;6.818;2023-07-08T11:17:03;36.20;7.70
6407;DHT22;3236;51.022;6.818;2023-07-08T11:19:37;36.50;7.90
6407;DHT22;3236;51.022;6.818;2023-07-08T11:22:10;37.30;7.00
6407;DHT22;3236;51.022;6.818;2023-07-08T11:24:43;36.90;5.80
6407;DHT22;3236;51.022;6.818;2023-07-08T11:27:15;36.90;7.90
6407;DHT22;3236;51.022;6.818;2023-07-08T11:29:50;36.70;6.70
6407;DHT22;3236;51.022;6.818;2023-07-08T11:32:20;36.90;6.40
6407;DHT22;3236;51.022;6.818;2023-07-08T11:34:49;37.30;3.60
6407;DHT22;3236;51.022;6.818;2023-07-08T11:37:19;36.80;3.80
6407;DHT22;3236;51.022;6.818;2023-07-08T11:39:54;37.40;4.80
6407;DHT22;3236;51.022;6.818;2023-07-08T11:42:23;37.50;3.30
6407;DHT22;3236;51.022;6.818;2023-07-08T11:44:54;36.30;3.20
6407;DHT22;3236;51.022;6.818;2023-07-08T11:47:26;37.40;3.50
6407;DHT22;3236;51.022;6.818;2023-07-08T11:49:59;37.70;2.60
6407;DHT22;3236;51.022;6.818;2023-07-08T11:52:29;37.30;2.10
6407;DHT22;3236;51.022;6.818;2023-07-08T11:55:02;38.70;2.40
6407;DHT22;3236;51.022;6.818;2023-07-08T11:57:37;38.90;2.10
6407;DHT22;3236;51.022;6.818;2023-07-08T12:00:25;39.30;1.00
6407;DHT22;3236;51.022;6.818;2023-07-08T12:02:56;39.10;1.30
6407;DHT22;3236;51.022;6.818;2023-07-08T12:05:31;39.00;1.00
6407;DHT22;3236;51.022;6.818;2023-07-08T12:08:02;37.40;1.00
6407;DHT22;3236;51.022;6.818;2023-07-08T12:10:34;38.80;1.00
6407;DHT22;3236;51.022;6.818;2023-07-08T12:13:02;39.70;1.00
6407;DHT22;3236;51.022;6.818;2023-07-08T12:15:31;39.00;1.00
6407;DHT22;3236;51.022;6.818;2023-07-08T12:18:01;39.80;1.00
6407;DHT22;3236;51.022;6.818;2023-07-08T12:20:34;39.50;1.00
6407;DHT22;3236;51.022;6.818;2023-07-08T12:23:04;38.50;1.00
6407;DHT22;3236;51.022;6.818;2023-07-08T12:25:36;39.00;1.00
6407;DHT22;3236;51.022;6.818;2023-07-08T12:28:03;38.60;1.00
6407;DHT22;3236;51.022;6.818;2023-07-08T12:30:32;38.70;1.00
6407;DHT22;3236;51.022;6.818;2023-07-08T12:33:01;38.50;1.00
6407;DHT22;3236;51.022;6.818;2023-07-08T12:35:33;39.50;1.00
6407;DHT22;3236;51.022;6.818;2023-07-08T12:38:05;40.00;1.00
6407;DHT22;3236;51.022;6.818;2023-07-08T12:40:36;39.50;1.00
6407;DHT22;3236;51.022;6.818;2023-07-08T12:43:07;39.70;1.00
6407;DHT22;3236;51.022;6.818;2023-07-08T12:45:36;38.30;1.00
6407;DHT22;3236;51.022;6.818;2023-07-08T12:48:04;38.80;1.00
6407;DHT22;3236;51.022;6.818;2023-07-08T12:50:34;39.50;1.00
6407;DHT22;3236;51.022;6.818;2023-07-08T12:57:59;38.40;1.00
6407;DHT22;3236;51.022;6.818;2023-07-08T13:00:28;39.60;1.00
6407;DHT22;3236;51.022;6.818;2023-07-08T13:02:59;40.90;1.00
6407;DHT22;3236;51.022;6.818;2023-07-08T13:05:32;40.70;1.00
6407;DHT22;3236;51.022;6.818;2023-07-08T13:07:59;41.50;1.00
6407;DHT22;3236;51.022;6.818;2023-07-08T13:10:31;42.60;1.00
6407;DHT22;3236;51.022;6.818;2023-07-08T13:13:06;40.60;1.00
6407;DHT22;3236;51.022;6.818;2023-07-08T13:15:36;40.40;1.00
6407;DHT22;3236;51.022;6.818;2023-07-08T13:18:05;40.30;1.00
6407;DHT22;3236;51.022;6.818;2023-07-08T13:20:32;40.80;1.00
6407;DHT22;3236;51.022;6.818;2023-07-08T13:23:07;40.20;1.00
6407;DHT22;3236;51.022;6.818;2023-07-08T13:25:37;40.30;1.00
6407;DHT22;3236;51.022;6.818;2023-07-08T13:28:16;40.20;1.00
6407;DHT22;3236;51.022;6.818;2023-07-08T13:30:50;41.30;1.00
6407;DHT22;3236;51.022;6.818;2023-07-08T13:33:18;39.80;1.00
6407;DHT22;3236;51.022;6.818;2023-07-08T13:35:46;39.80;1.00
6407;DHT22;3236;51.022;6.818;2023-07-08T13:38:16;39.40;1.00
6407;DHT22;3236;51.022;6.818;2023-07-08T13:40:47;38.60;1.00
6407;DHT22;3236;51.022;6.818;2023-07-08T13:43:15;39.00;1.00
6407;DHT22;3236;51.022;6.818;2023-07-08T13:45:45;38.60;1.00
6407;DHT22;3236;51.022;6.818;2023-07-08T13:48:21;40.00;1.00
6407;DHT22;3236;51.022;6.818;2023-07-08T13:50:53;39.90;1.00
6407;DHT22;3236;51.022;6.818;2023-07-08T13:53:25;39.80;1.00
6407;DHT22;3236;51.022;6.818;2023-07-08T13:56:03;39.60;1.00
6407;DHT22;3236;51.022;6.818;2023-07-08T14:00:58;38.70;1.00
6407;DHT22;3236;51.022;6.818;2023-07-08T14:03:25;40.40;1.00
6407;DHT22;3236;51.022;6.818;2023-07-08T14:05:53;40.10;1.00
6407;DHT22;3236;51.022;6.818;2023-07-08T14:08:23;40.30;1.00
6407;DHT22;3236;51.022;6.818;2023-07-08T14:10:50;39.60;1.00
6407;DHT22;3236;51.022;6.818;2023-07-08T14:13:32;40.40;1.00
6407;DHT22;3236;51.022;6.818;2023-07-08T14:16:00;40.10;1.00
6407;DHT22;3236;51.022;6.818;2023-07-08T14:18:30;41.10;1.00
6407;DHT22;3236;51.022;6.818;2023-07-08T14:20:58;39.90;1.00
6407;DHT22;3236;51.022;6.818;2023-07-08T14:23:25;39.80;1.00
6407;DHT22;3236;51.022;6.818;2023-07-08T14:25:52;39.70;1.00
6407;DHT22;3236;51.022;6.818;2023-07-08T14:28:19;39.80;1.00
6407;DHT22;3236;51.022;6.818;2023-07-08T14:30:48;38.70;1.00
6407;DHT22;3236;51.022;6.818;2023-07-08T14:33:15;38.30;1.00
6407;DHT22;3236;51.022;6.818;2023-07-08T14:35:42;37.70;1.00
6407;DHT22;3236;51.022;6.818;2023-07-08T14:38:10;37.90;1.00
6407;DHT22;3236;51.022;6.818;2023-07-08T14:40:41;37.90;1.00
6407;DHT22;3236;51.022;6.818;2023-07-08T14:43:14;37.70;1.00
6407;DHT22;3236;51.022;6.818;2023-07-08T14:48:20;39.40;1.00
6407;DHT22;3236;51.022;6.818;2023-07-08T14:50:50;39.00;1.00
6407;DHT22;3236;51.022;6.818;2023-07-08T14:53:22;40.20;1.00
6407;DHT22;3236;51.022;6.818;2023-07-08T14:55:51;40.70;1.00
6407;DHT22;3236;51.022;6.818;2023-07-08T14:58:22;40.00;1.00
6407;DHT22;3236;51.022;6.818;2023-07-08T15:00:51;40.30;1.00
6407;DHT22;3236;51.022;6.818;2023-07-08T15:03:18;40.20;1.00
6407;DHT22;3236;51.022;6.818;2023-07-08T15:08:13;38.40;1.00
6407;DHT22;3236;51.022;6.818;2023-07-08T15:10:47;38.90;1.00
6407;DHT22;3236;51.022;6.818;2023-07-08T15:13:15;38.00;1.00
6407;DHT22;3236;51.022;6.818;2023-07-08T15:15:43;38.30;1.00
6407;DHT22;3236;51.022;6.818;2023-07-08T15:18:13;38.40;1.00
6407;DHT22;3236;51.022;6.818;2023-07-08T15:20:41;38.50;1.00
6407;DHT22;3236;51.022;6.818;2023-07-08T15:23:09;38.10;1.00
6407;DHT22;3236;51.022;6.818;2023-07-08T15:25:38;38.10;1.00
6407;DHT22;3236;51.022;6.818;2023-07-08T15:28:15;38.20;1.00
6407;DHT22;3236;51.022;6.818;2023-07-08T15:30:43;37.90;1.00
6407;DHT22;3236;51.022;6.818;2023-07-08T15:33:13;37.60;1.00
6407;DHT22;3236;51.022;6.818;2023-07-08T15:35:41;38.00;1.00
6407;DHT22;3236;51.022;6.818;2023-07-08T15:38:09;38.50;1.00
6407;DHT22;3236;51.022;6.818;2023-07-08T15:40:38;38.50;1.00
6407;DHT22;3236;51.022;6.818;2023-07-08T15:43:11;39.30;1.00
6407;DHT22;3236;51.022;6.818;2023-07-08T15:45:40;39.20;1.00
6407;DHT22;3236;51.022;6.818;2023-07-08T15:50:42;38.20;1.00
6407;DHT22;3236;51.022;6.818;2023-07-08T15:53:09;37.40;1.00
6407;DHT22;3236;51.022;6.818;2023-07-08T15:55:41;37.80;1.00
6407;DHT22;3236;51.022;6.818;2023-07-08T15:58:13;38.10;1.00
6407;DHT22;3236;51.022;6.818;2023-07-08T16:00:41;38.20;1.00
6407;DHT22;3236;51.022;6.818;2023-07-08T16:03:13;37.30;1.00
6407;DHT22;3236;51.022;6.818;2023-07-08T16:08:12;37.30;1.00
6407;DHT22;3236;51.022;6.818;2023-07-08T16:10:40;36.80;1.00
6407;DHT22;3236;51.022;6.818;2023-07-08T16:13:09;37.00;1.00
6407;DHT22;3236;51.022;6.818;2023-07-08T16:20:32;39.60;1.00
6407;DHT22;3236;51.022;6.818;2023-07-08T16:23:00;39.00;1.00
6407;DHT22;3236;51.022;6.818;2023-07-08T16:25:34;38.60;1.00
6407;DHT22;3236;51.022;6.818;2023-07-08T16:28:03;38.00;1.00
6407;DHT22;3236;51.022;6.818;2023-07-08T16:30:31;37.20;1.00
6407;DHT22;3236;51.022;6.818;2023-07-08T16:35:29;36.40;1.00
6407;DHT22;3236;51.022;6.818;2023-07-08T16:40:25;35.60;1.00
6407;DHT22;3236;51.022;6.818;2023-07-08T16:42:55;35.30;1.00
6407;DHT22;3236;51.022;6.818;2023-07-08T16:45:24;35.00;1.00
6407;DHT22;3236;51.022;6.818;2023-07-08T16:47:53;35.40;1.40
6407;DHT22;3236;51.022;6.818;2023-07-08T16:50:26;35.20;2.30
6407;DHT22;3236;51.022;6.818;2023-07-08T16:52:55;34.70;1.80
6407;DHT22;3236;51.022;6.818;2023-07-08T16:55:23;34.70;3.20
6407;DHT22;3236;51.022;6.818;2023-07-08T16:57:53;34.90;1.80
6407;DHT22;3236;51.022;6.818;2023-07-08T17:00:21;35.00;2.60
6407;DHT22;3236;51.022;6.818;2023-07-08T17:02:48;36.40;2.80